createdAt,value
2023-02-03T00:00:57.210Z,4.23
2023-02-03T00:03:24.778Z,4.08
2023-02-03T00:05:52.367Z,4.17
2023-02-03T00:08:21.559Z,4.16
2023-02-03T00:10:49.241Z,4.24
2023-02-03T00:13:16.794Z,4.02
2023-02-03T00:15:44.282Z,4.09
2023-02-03T00:18:11.729Z,4.18
2023-02-03T00:20:39.178Z,4.29
2023-02-03T00:23:07.308Z,4.17
2023-02-03T00:25:36.448Z,4.26
2023-02-03T00:28:04.600Z,4.30
2023-02-03T00:30:32.428Z,4.06
2023-02-03T00:32:59.890Z,4.31
2023-02-03T00:35:27.477Z,4.20
2023-02-03T00:37:56.507Z,4.09
2023-02-03T00:40:26.696Z,4.03
2023-02-03T00:42:55.859Z,3.92
2023-02-03T00:45:24.475Z,3.84
2023-02-03T00:47:52.100Z,3.95
2023-02-03T00:50:19.603Z,3.97
2023-02-03T00:52:47.051Z,3.95
2023-02-03T00:55:14.609Z,3.92
2023-02-03T00:57:42.076Z,3.93
2023-02-03T01:00:12.625Z,4.04
2023-02-03T01:02:40.109Z,3.83
2023-02-03T01:05:08.677Z,3.90
2023-02-03T01:07:36.166Z,3.91
2023-02-03T01:10:04.126Z,3.85
2023-02-03T01:12:32.068Z,3.90
2023-02-03T01:14:59.636Z,3.91
2023-02-03T01:17:28.515Z,4.03
2023-02-03T01:19:55.956Z,3.97
2023-02-03T01:22:23.476Z,3.95
2023-02-03T01:24:50.923Z,3.93
2023-02-03T01:27:18.387Z,3.96
2023-02-03T01:29:45.812Z,4.04
2023-02-03T01:32:13.264Z,3.99
2023-02-03T01:34:42.034Z,4.02
2023-02-03T01:37:09.481Z,3.88
2023-02-03T01:39:37.165Z,3.90
2023-02-03T01:42:05.851Z,3.81
2023-02-03T01:44:44.946Z,3.77
2023-02-03T01:47:18.421Z,3.66
2023-02-03T01:49:50.853Z,3.85
2023-02-03T01:52:18.848Z,3.91
2023-02-03T01:54:51.543Z,4.17
2023-02-03T01:57:23.853Z,4.11
2023-02-03T01:59:54.305Z,4.09
2023-02-03T02:02:21.925Z,4.15
2023-02-03T02:04:57.570Z,3.82
2023-02-03T02:07:25.466Z,3.70
2023-02-03T02:09:53.197Z,3.84
2023-02-03T02:12:20.675Z,3.92
2023-02-03T02:14:48.871Z,3.95
2023-02-03T02:17:34.068Z,3.90
2023-02-03T02:20:34.046Z,3.97
2023-02-03T02:23:40.180Z,3.90
2023-02-03T02:26:32.465Z,4.04
2023-02-03T02:29:17.251Z,3.78
2023-02-03T02:32:06.580Z,3.83
2023-02-03T02:34:47.828Z,3.88
2023-02-03T02:37:25.274Z,4.08
2023-02-03T02:39:59.284Z,3.86
2023-02-03T02:42:35.542Z,3.94
2023-02-03T02:45:11.340Z,4.00
2023-02-03T02:47:40.495Z,3.91
2023-02-03T02:50:13.673Z,4.03
2023-02-03T02:52:45.308Z,4.03
2023-02-03T02:55:24.446Z,4.25
2023-02-03T02:57:54.239Z,4.07
2023-02-03T03:00:22.625Z,4.15
2023-02-03T03:02:51.384Z,4.15
2023-02-03T03:05:19.712Z,4.17
2023-02-03T03:07:52.527Z,4.17
2023-02-03T03:10:24.889Z,4.09
2023-02-03T03:12:56.574Z,4.14
2023-02-03T03:15:27.910Z,4.12
2023-02-03T03:18:01.597Z,4.17
2023-02-03T03:20:32.748Z,4.20
2023-02-03T03:23:04.751Z,4.11
2023-02-03T03:25:39.773Z,4.24
2023-02-03T03:28:13.352Z,4.37
2023-02-03T03:30:41.047Z,4.23
2023-02-03T03:33:10.871Z,4.20
2023-02-03T03:35:43.602Z,4.26
2023-02-03T03:38:20.484Z,4.29
2023-02-03T03:40:54.093Z,4.29
2023-02-03T03:43:24.707Z,4.28
2023-02-03T03:45:56.773Z,4.25
2023-02-03T03:48:30.817Z,4.30
2023-02-03T03:51:03.495Z,4.29
2023-02-03T03:53:34.853Z,4.37
2023-02-03T03:56:04.440Z,4.46
2023-02-03T03:58:33.568Z,4.47
2023-02-03T04:01:03.764Z,4.54
2023-02-03T04:03:38.449Z,4.37
2023-02-03T04:06:06.943Z,4.41
2023-02-03T04:08:34.509Z,4.27
2023-02-03T04:11:01.980Z,4.29
2023-02-03T04:13:29.420Z,4.43
2023-02-03T04:15:56.909Z,4.44
2023-02-03T04:18:24.380Z,4.45
2023-02-03T04:20:53.184Z,4.46
2023-02-03T04:23:20.637Z,4.49
2023-02-03T04:25:48.132Z,4.48
2023-02-03T04:28:15.664Z,4.44
2023-02-03T04:30:43.200Z,4.37
2023-02-03T04:33:10.654Z,4.44
2023-02-03T04:35:38.124Z,4.57
2023-02-03T04:38:06.991Z,4.44
2023-02-03T04:40:35.205Z,4.34
2023-02-03T04:43:07.143Z,4.29
2023-02-03T04:45:34.730Z,4.26
2023-02-03T04:48:03.947Z,4.37
2023-02-03T04:50:31.568Z,4.27
2023-02-03T04:53:00.443Z,4.36
2023-02-03T04:55:29.418Z,4.43
2023-02-03T04:57:57.090Z,4.34
2023-02-03T05:00:24.951Z,4.37
2023-02-03T05:02:52.579Z,4.36
2023-02-03T05:05:20.270Z,4.41
2023-02-03T05:07:47.807Z,4.49
2023-02-03T05:10:15.303Z,4.37
2023-02-03T05:12:44.096Z,4.50
2023-02-03T05:15:11.784Z,4.47
2023-02-03T05:17:40.202Z,4.67
2023-02-03T05:20:08.708Z,4.51
2023-02-03T05:22:36.271Z,4.40
2023-02-03T05:25:04.692Z,4.44
2023-02-03T05:27:32.218Z,4.58
2023-02-03T05:30:01.076Z,4.74
2023-02-03T05:32:28.550Z,4.62
2023-02-03T05:34:56.001Z,4.70
2023-02-03T05:37:23.624Z,4.40
2023-02-03T05:39:51.104Z,4.38
2023-02-03T05:42:17.637Z,4.41
2023-02-03T05:44:45.098Z,4.35
2023-02-03T05:47:13.889Z,4.39
2023-02-03T05:49:41.369Z,4.33
2023-02-03T05:52:08.837Z,4.38
2023-02-03T05:54:36.292Z,4.39
2023-02-03T05:57:03.840Z,4.36
2023-02-03T05:59:31.287Z,4.43
2023-02-03T06:01:58.760Z,4.37
2023-02-03T06:04:27.590Z,4.58
2023-02-03T06:06:55.089Z,4.56
2023-02-03T06:09:22.565Z,4.40
2023-02-03T06:11:50.031Z,4.40
2023-02-03T06:14:17.496Z,4.36
2023-02-03T06:16:45.217Z,4.37
2023-02-03T06:19:14.589Z,4.34
2023-02-03T06:21:44.829Z,4.36
2023-02-03T06:24:12.470Z,4.39
2023-02-03T06:26:39.934Z,4.33
2023-02-03T06:29:07.389Z,4.44
2023-02-03T06:31:34.933Z,4.40
2023-02-03T06:34:02.616Z,4.36
2023-02-03T06:36:30.357Z,4.51
2023-02-03T06:38:59.323Z,4.46
2023-02-03T06:41:30.364Z,4.27
2023-02-03T06:43:57.841Z,4.33
2023-02-03T06:46:28.118Z,4.25
2023-02-03T06:48:55.551Z,4.42
2023-02-03T06:51:24.732Z,4.49
2023-02-03T06:53:52.362Z,4.26
2023-02-03T06:56:21.168Z,4.26
2023-02-03T06:58:48.625Z,4.27
2023-02-03T07:01:16.174Z,4.38
2023-02-03T07:03:43.790Z,4.36
2023-02-03T07:06:11.276Z,4.39
2023-02-03T07:08:38.716Z,4.28
2023-02-03T07:11:06.628Z,4.23
2023-02-03T07:13:35.458Z,4.22
2023-02-03T07:16:03.015Z,4.38
2023-02-03T07:18:46.476Z,4.59
2023-02-03T07:21:16.116Z,4.45
2023-02-03T07:23:43.610Z,4.37
2023-02-03T07:26:11.651Z,4.44
2023-02-03T07:28:40.912Z,4.38
2023-02-03T07:31:10.586Z,4.40
2023-02-03T07:33:39.070Z,4.48
2023-02-03T07:36:08.071Z,4.63
2023-02-03T07:38:35.522Z,4.68
2023-02-03T07:41:02.964Z,4.84
2023-02-03T07:43:30.436Z,4.79
2023-02-03T07:45:59.306Z,4.71
2023-02-03T07:48:26.770Z,4.61
2023-02-03T07:50:54.394Z,4.63
2023-02-03T07:53:21.874Z,4.78
2023-02-03T07:55:49.343Z,4.52
2023-02-03T07:58:17.139Z,4.49
2023-02-03T08:00:44.611Z,4.68
2023-02-03T08:03:13.429Z,4.56
2023-02-03T08:05:40.879Z,4.54
2023-02-03T08:08:08.363Z,4.53
2023-02-03T08:10:35.913Z,4.54
2023-02-03T08:13:03.378Z,4.55
2023-02-03T08:15:30.831Z,4.64
2023-02-03T08:17:58.297Z,4.63
2023-02-03T08:20:27.495Z,4.69
2023-02-03T08:22:55.127Z,4.72
2023-02-03T08:25:22.863Z,4.94
2023-02-03T08:27:50.401Z,4.90
2023-02-03T08:30:17.919Z,4.87
2023-02-03T08:32:45.434Z,4.96
2023-02-03T08:35:12.925Z,4.88
2023-02-03T08:37:41.984Z,4.76
2023-02-03T08:40:10.407Z,4.75
2023-02-03T08:42:37.921Z,4.77
2023-02-03T08:45:06.879Z,4.81
2023-02-03T08:47:36.734Z,4.71
2023-02-03T08:50:05.023Z,4.83
2023-02-03T08:52:32.683Z,4.82
2023-02-03T08:55:01.521Z,4.86
2023-02-03T08:57:29.064Z,4.60
2023-02-03T08:59:56.524Z,4.61
2023-02-03T09:02:23.984Z,4.65
2023-02-03T09:04:51.979Z,4.65
2023-02-03T09:07:19.480Z,4.77
2023-02-03T09:09:47.038Z,4.80
2023-02-03T09:12:16.105Z,4.75
2023-02-03T09:14:43.853Z,4.83
2023-02-03T09:17:11.776Z,4.94
2023-02-03T09:19:39.303Z,4.96
2023-02-03T09:22:07.160Z,4.84
2023-02-03T09:24:35.143Z,4.90
2023-02-03T09:27:03.642Z,4.83
2023-02-03T09:29:32.712Z,4.88
2023-02-03T09:32:01.044Z,4.76
2023-02-03T09:34:28.553Z,4.80
2023-02-03T09:36:55.996Z,4.90
2023-02-03T09:39:23.443Z,4.90
2023-02-03T09:42:28.966Z,4.83
2023-02-03T09:45:08.944Z,4.87
2023-02-03T09:47:40.496Z,4.89
2023-02-03T09:50:15.370Z,5.06
2023-02-03T09:52:44.228Z,5.05
2023-02-03T09:55:25.226Z,4.99
2023-02-03T09:57:57.957Z,5.11
2023-02-03T10:00:30.887Z,5.12
2023-02-03T10:03:04.901Z,5.06
2023-02-03T10:05:48.471Z,5.20
2023-02-03T10:08:26.928Z,5.18
2023-02-03T10:11:10.391Z,5.38
2023-02-03T10:13:48.084Z,5.20
2023-02-03T10:16:30.910Z,5.40
2023-02-03T10:19:04.369Z,5.31
2023-02-03T10:21:38.170Z,5.28
2023-02-03T10:24:11.292Z,5.28
2023-02-03T10:26:41.144Z,5.35
2023-02-03T10:29:19.381Z,5.37
2023-02-03T10:31:49.221Z,5.42
2023-02-03T10:34:19.690Z,5.34
2023-02-03T10:36:55.649Z,5.30
2023-02-03T10:39:32.011Z,5.32
2023-02-03T10:42:00.287Z,5.59
2023-02-03T10:44:36.468Z,5.59
2023-02-03T10:47:18.783Z,5.71
2023-02-03T10:49:46.444Z,5.87
2023-02-03T10:52:27.724Z,5.59
2023-02-03T10:54:55.950Z,5.48
2023-02-03T10:57:23.475Z,5.55
2023-02-03T10:59:50.941Z,5.45
2023-02-03T11:02:25.776Z,5.44
2023-02-03T11:05:12.691Z,5.33
2023-02-03T11:07:40.146Z,5.42
2023-02-03T11:10:30.741Z,5.40
2023-02-03T11:13:18.247Z,5.51
2023-02-03T11:15:53.064Z,5.52
2023-02-03T11:18:36.474Z,5.59
2023-02-03T11:21:09.697Z,5.74
2023-02-03T11:23:38.289Z,5.89
2023-02-03T11:26:15.328Z,5.72
2023-02-03T11:28:45.990Z,5.55
2023-02-03T11:31:19.619Z,5.71
2023-02-03T11:33:56.889Z,5.71
2023-02-03T11:36:28.263Z,5.73
2023-02-03T11:39:11.020Z,5.58
2023-02-03T11:41:39.955Z,5.47
2023-02-03T11:44:17.417Z,5.55
2023-02-03T11:46:47.297Z,5.52
2023-02-03T11:49:40.291Z,5.47
2023-02-03T11:52:33.689Z,5.37
2023-02-03T11:55:08.974Z,5.31
2023-02-03T11:57:45.645Z,5.30
2023-02-03T12:00:27.174Z,5.24
2023-02-03T12:03:30.792Z,5.35
2023-02-03T12:06:09.565Z,5.59
2023-02-03T12:08:50.912Z,5.49
2023-02-03T12:11:31.708Z,5.47
2023-02-03T12:14:23.460Z,5.37
2023-02-03T12:17:07.292Z,5.14
2023-02-03T12:19:47.041Z,5.30
2023-02-03T12:22:24.361Z,5.16
2023-02-03T12:25:03.932Z,5.18
2023-02-03T12:27:48.315Z,5.14
2023-02-03T12:30:23.036Z,5.25
2023-02-03T12:32:54.872Z,5.32
2023-02-03T12:35:27.633Z,5.40
2023-02-03T12:38:02.365Z,5.38
2023-02-03T12:40:36.723Z,5.54
2023-02-03T12:43:18.971Z,5.53
2023-02-03T12:45:54.089Z,5.52
2023-02-03T12:48:25.421Z,5.54
2023-02-03T12:50:57.091Z,5.53
2023-02-03T12:53:30.457Z,5.67
2023-02-03T12:56:02.871Z,5.74
2023-02-03T12:58:34.856Z,5.90
2023-02-03T13:01:08.263Z,5.76
2023-02-03T13:03:42.069Z,5.67
2023-02-03T13:06:15.943Z,5.77
2023-02-03T13:08:51.476Z,5.88
2023-02-03T13:11:24.211Z,5.74
2023-02-03T13:13:56.750Z,5.81
2023-02-03T13:16:29.859Z,5.74
2023-02-03T13:19:01.926Z,5.87
2023-02-03T13:21:29.439Z,5.72
2023-02-03T13:23:58.745Z,5.74
2023-02-03T13:26:48.576Z,5.81
2023-02-03T13:29:31.509Z,5.82
2023-02-03T13:32:11.784Z,5.87
2023-02-03T13:34:59.881Z,5.74
2023-02-03T13:37:42.551Z,5.82
2023-02-03T13:40:38.529Z,5.83
2023-02-03T13:43:12.701Z,5.74
2023-02-03T13:45:44.033Z,5.79
2023-02-03T13:48:17.321Z,5.69
2023-02-03T13:50:46.308Z,5.63
2023-02-03T13:53:20.505Z,5.72
2023-02-03T13:55:57.809Z,5.74
2023-02-03T13:58:28.778Z,5.84
2023-02-03T14:01:30.363Z,5.60
2023-02-03T14:03:58.709Z,5.65
2023-02-03T14:07:01.032Z,5.47
2023-02-03T14:09:39.937Z,5.46
2023-02-03T14:12:19.586Z,5.48
2023-02-03T14:15:04.869Z,5.38
2023-02-03T14:17:55.481Z,5.44
2023-02-03T14:20:48.813Z,5.39
2023-02-03T14:23:22.681Z,5.38
2023-02-03T14:25:53.302Z,5.36
2023-02-03T14:28:25.891Z,5.42
2023-02-03T14:31:10.432Z,5.38
2023-02-03T14:33:52.329Z,5.40
2023-02-03T14:36:39.660Z,5.36
2023-02-03T14:39:37.003Z,5.43
2023-02-03T14:42:13.299Z,5.36
2023-02-03T14:44:53.582Z,5.35
2023-02-03T14:47:36.357Z,5.38
2023-02-03T14:50:18.079Z,5.41
2023-02-03T14:53:01.814Z,5.38
2023-02-03T14:55:40.377Z,5.37
2023-02-03T14:58:21.189Z,5.33
2023-02-03T15:00:52.514Z,5.33
2023-02-03T15:03:25.292Z,5.38
2023-02-03T15:05:58.618Z,5.35
2023-02-03T15:08:47.179Z,5.40
2023-02-03T15:11:29.537Z,5.40
2023-02-03T15:13:58.941Z,5.36
2023-02-03T15:16:27.864Z,5.34
2023-02-03T15:18:59.126Z,5.43
2023-02-03T15:21:27.148Z,5.38
2023-02-03T15:23:55.335Z,5.39
2023-02-03T15:26:24.811Z,5.45
2023-02-03T15:28:56.965Z,5.39
2023-02-03T15:31:33.827Z,5.39
2023-02-03T15:34:07.937Z,5.48
2023-02-03T15:36:43.173Z,5.46
2023-02-03T15:39:20.688Z,5.51
2023-02-03T15:41:51.128Z,5.43
2023-02-03T15:44:28.989Z,5.48
2023-02-03T15:46:58.785Z,5.45
2023-02-03T15:49:30.634Z,5.50
2023-02-03T15:52:01.253Z,5.47
2023-02-03T15:54:40.357Z,5.50
2023-02-03T15:57:11.560Z,5.55
2023-02-03T15:59:42.166Z,5.54
2023-02-03T16:02:18.330Z,5.54
2023-02-03T16:04:46.346Z,5.51
2023-02-03T16:07:19.098Z,5.57
2023-02-03T16:09:46.550Z,5.59
2023-02-03T16:12:19.583Z,5.56
2023-02-03T16:14:47.409Z,5.65
2023-02-03T16:17:29.071Z,5.63
2023-02-03T16:20:22.673Z,5.60
2023-02-03T16:23:03.637Z,5.57
2023-02-03T16:25:33.602Z,5.54
2023-02-03T16:28:20.365Z,5.54
2023-02-03T16:31:14.033Z,5.56
2023-02-03T16:34:03.407Z,5.56
2023-02-03T16:36:48.491Z,5.54
2023-02-03T16:39:33.820Z,5.57
2023-02-03T16:42:19.843Z,5.53
2023-02-03T16:45:05.213Z,5.54
2023-02-03T16:47:51.257Z,5.59
2023-02-03T16:50:40.682Z,5.59
2023-02-03T16:53:13.472Z,5.61
2023-02-03T16:55:41.051Z,5.62
2023-02-03T16:58:09.568Z,5.63
2023-02-03T17:00:37.043Z,5.70
2023-02-03T17:03:05.240Z,5.66
2023-02-03T17:05:37.865Z,5.65
2023-02-03T17:08:05.622Z,5.64
2023-02-03T17:10:34.456Z,5.67
2023-02-03T17:13:02.043Z,5.73
2023-02-03T17:15:29.807Z,5.73
2023-02-03T17:17:59.306Z,5.76
2023-02-03T17:20:27.065Z,5.80
2023-02-03T17:22:56.013Z,5.81
2023-02-03T17:25:23.811Z,5.81
2023-02-03T17:27:51.501Z,5.88
2023-02-03T17:30:19.506Z,5.87
2023-02-03T17:32:47.127Z,5.88
2023-02-03T17:35:14.688Z,5.85
2023-02-03T17:37:42.287Z,5.83
2023-02-03T17:54:05.957Z,6.10
2023-02-03T17:56:36.395Z,6.06
2023-02-03T17:59:05.689Z,6.03
2023-02-03T18:01:33.693Z,6.01
2023-02-03T18:04:03.610Z,5.98
2023-02-03T18:06:35.012Z,6.01
2023-02-03T18:09:03.127Z,6.02
2023-02-03T18:11:32.310Z,6.02
2023-02-03T18:14:02.083Z,6.11
2023-02-03T18:16:33.074Z,6.02
2023-02-03T18:19:02.712Z,6.07
2023-02-03T18:21:32.185Z,6.07
2023-02-03T18:24:01.996Z,6.09
2023-02-03T18:26:32.515Z,6.11
2023-02-03T18:29:02.023Z,6.17
2023-02-03T18:31:29.777Z,6.20
2023-02-03T18:33:57.297Z,6.18
2023-02-03T18:36:24.913Z,6.16
2023-02-03T18:38:52.397Z,6.19
2023-02-03T18:41:21.610Z,6.22
2023-02-03T18:43:49.556Z,6.27
2023-02-03T18:46:20.583Z,6.27
2023-02-03T18:48:49.074Z,6.30
2023-02-03T18:51:23.503Z,6.29
2023-02-03T18:53:51.270Z,6.32
2023-02-03T18:56:20.729Z,6.33
2023-02-03T18:58:48.615Z,6.36
2023-02-03T19:01:25.766Z,6.31
2023-02-03T19:03:54.599Z,6.32
2023-02-03T19:06:22.235Z,6.31
2023-02-03T19:08:49.782Z,6.37
2023-02-03T19:11:18.371Z,6.28
2023-02-03T19:13:46.049Z,6.27
2023-02-03T19:16:16.694Z,6.30
2023-02-03T19:18:46.089Z,6.29
2023-02-03T19:21:14.512Z,6.27
2023-02-03T19:23:42.837Z,6.27
2023-02-03T19:26:11.980Z,6.29
2023-02-03T19:28:40.096Z,6.30
2023-02-03T19:31:09.923Z,6.28
2023-02-03T19:33:37.988Z,6.30
2023-02-03T19:36:08.336Z,6.34
2023-02-03T19:38:36.853Z,6.30
2023-02-03T19:41:04.552Z,6.28
2023-02-03T19:43:32.348Z,6.28
2023-02-03T19:46:00.626Z,6.28
2023-02-03T19:48:28.195Z,6.24
2023-02-03T19:50:55.743Z,6.22
2023-02-03T19:53:25.161Z,6.19
2023-02-03T19:55:53.047Z,6.20
2023-02-03T19:58:20.893Z,6.20
2023-02-03T20:00:48.390Z,6.26
2023-02-03T20:03:17.643Z,6.27
2023-02-03T20:05:45.215Z,6.25
2023-02-03T20:08:14.730Z,6.21
2023-02-03T20:10:45.258Z,6.21
2023-02-03T20:13:12.993Z,6.32
2023-02-03T20:15:40.470Z,6.36
2023-02-03T20:18:08.208Z,6.39
2023-02-03T20:20:36.715Z,6.45
2023-02-03T20:23:04.280Z,6.41
2023-02-03T20:25:31.907Z,6.44
2023-02-03T20:28:02.434Z,6.42
2023-02-03T20:30:30.386Z,6.47
2023-02-03T20:32:58.575Z,6.43
2023-02-03T20:35:27.252Z,6.45
2023-02-03T20:37:55.082Z,6.47
2023-02-03T20:40:24.484Z,6.46
2023-02-03T20:42:53.028Z,6.39
2023-02-03T20:45:23.322Z,6.36
2023-02-03T20:47:51.031Z,6.37
2023-02-03T20:50:23.617Z,6.38
2023-02-03T20:52:53.620Z,6.49
2023-02-03T20:55:23.164Z,6.41
2023-02-03T20:57:54.162Z,6.38
2023-02-03T21:00:25.660Z,6.49
2023-02-03T21:03:11.452Z,6.41
2023-02-03T21:05:40.719Z,6.37
2023-02-03T21:08:11.993Z,6.37
2023-02-03T21:10:40.782Z,6.38
2023-02-03T21:13:20.993Z,6.30
2023-02-03T21:15:50.895Z,6.36
2023-02-03T21:18:29.209Z,6.31
2023-02-03T21:20:56.970Z,6.30
2023-02-03T21:23:28.871Z,6.28
2023-02-03T21:25:56.326Z,6.27
2023-02-03T21:28:26.547Z,6.28
2023-02-03T21:30:55.456Z,6.26
2023-02-03T21:33:33.516Z,6.30
2023-02-03T21:36:00.981Z,6.34
2023-02-03T21:38:31.377Z,6.24
2023-02-03T21:40:59.486Z,6.18
2023-02-03T21:43:26.965Z,6.22
2023-02-03T21:45:56.133Z,6.25
2023-02-03T21:48:27.772Z,6.23
2023-02-03T21:50:56.810Z,6.22
2023-02-03T21:53:27.563Z,6.20
2023-02-03T21:55:55.233Z,6.13
2023-02-03T21:58:25.896Z,6.09
2023-02-03T22:00:56.815Z,6.11
2023-02-03T22:03:27.820Z,6.11
2023-02-03T22:06:05.351Z,6.13
2023-02-03T22:08:37.220Z,6.09
2023-02-03T22:11:04.981Z,6.06
2023-02-03T22:13:32.910Z,6.05
2023-02-03T22:16:02.051Z,5.98
2023-02-03T22:18:29.503Z,5.87
2023-02-03T22:20:57.083Z,5.94
2023-02-03T22:23:24.600Z,5.91
2023-02-03T22:25:52.262Z,5.87
2023-02-03T22:28:19.769Z,5.98
2023-02-03T22:30:47.939Z,5.95
2023-02-03T22:33:16.920Z,6.09
2023-02-03T22:35:44.418Z,6.08
2023-02-03T22:38:12.055Z,6.02
2023-02-03T22:40:39.525Z,6.03
2023-02-03T22:43:07.161Z,6.11
2023-02-03T22:45:34.682Z,6.07
2023-02-03T22:48:02.171Z,5.98
2023-02-03T22:50:35.711Z,5.98
2023-02-03T22:53:04.583Z,5.96
2023-02-03T22:55:32.414Z,6.04
2023-02-03T22:57:59.927Z,5.95
2023-02-03T23:00:28.495Z,5.97
2023-02-03T23:02:56.232Z,6.00
2023-02-03T23:05:23.976Z,6.05
2023-02-03T23:07:52.786Z,6.06
2023-02-03T23:10:22.611Z,5.96
2023-02-03T23:12:50.332Z,5.92
2023-02-03T23:15:18.894Z,5.93
2023-02-03T23:17:46.592Z,5.75
2023-02-03T23:20:16.398Z,5.67
2023-02-03T23:22:43.951Z,5.55
2023-02-03T23:25:13.183Z,5.56
2023-02-03T23:27:40.715Z,5.49
2023-02-03T23:30:08.923Z,5.47
2023-02-03T23:32:36.404Z,5.49
2023-02-03T23:35:21.640Z,5.53
2023-02-03T23:37:49.140Z,5.46
2023-02-03T23:40:19.266Z,5.37
2023-02-03T23:42:46.934Z,5.41
2023-02-03T23:45:14.542Z,5.43
2023-02-03T23:47:43.343Z,5.42
2023-02-03T23:50:13.071Z,5.40
2023-02-03T23:52:40.574Z,5.41
2023-02-03T23:55:10.424Z,5.35
2023-02-03T23:57:40.178Z,5.47
